createdAt,value
2022-08-02T00:00:58.399Z,17.3
2022-08-02T00:02:01.558Z,17.3
2022-08-02T00:03:03.691Z,17.3
2022-08-02T00:04:06.333Z,17.2
2022-08-02T00:05:09.561Z,17.1
2022-08-02T00:06:11.966Z,17.1
2022-08-02T00:07:14.887Z,17.1
2022-08-02T00:08:17.824Z,17.2
2022-08-02T00:09:22.977Z,17.1
2022-08-02T00:10:25.546Z,17.1
2022-08-02T00:11:28.407Z,17
2022-08-02T00:12:31.805Z,17
2022-08-02T00:13:34.483Z,17
2022-08-02T00:14:37.404Z,17
2022-08-02T00:15:40.332Z,16.9
2022-08-02T00:16:42.190Z,16.9
2022-08-02T00:17:48.848Z,17
2022-08-02T00:18:51.463Z,17
2022-08-02T00:19:53.747Z,16.9
2022-08-02T00:20:57.204Z,16.9
2022-08-02T00:22:00.390Z,17
2022-08-02T00:23:02.786Z,16.9
2022-08-02T00:24:32.533Z,16.9
2022-08-02T00:25:35.102Z,16.9
2022-08-02T00:26:38.011Z,16.9
2022-08-02T00:27:40.642Z,16.8
2022-08-02T00:28:43.059Z,16.9
2022-08-02T00:29:55.013Z,16.9
2022-08-02T00:30:58.218Z,16.8
2022-08-02T00:32:01.088Z,16.7
2022-08-02T00:33:03.726Z,16.7
2022-08-02T00:34:39.064Z,16.7
2022-08-02T00:35:42.294Z,16.7
2022-08-02T00:36:45.204Z,16.7
2022-08-02T00:37:48.102Z,16.7
2022-08-02T00:38:50.801Z,16.7
2022-08-02T00:39:53.517Z,16.7
2022-08-02T00:40:59.803Z,16.7
2022-08-02T00:42:02.724Z,16.6
2022-08-02T00:43:05.570Z,16.6
2022-08-02T00:44:08.482Z,16.6
2022-08-02T00:45:13.867Z,16.6
2022-08-02T00:46:16.654Z,16.6
2022-08-02T00:47:20.950Z,16.5
2022-08-02T00:48:23.310Z,16.6
2022-08-02T00:49:26.313Z,16.4
2022-08-02T00:50:29.060Z,16.4
2022-08-02T00:51:31.688Z,16.4
2022-08-02T00:52:34.313Z,16.4
2022-08-02T00:53:36.646Z,16.4
2022-08-02T00:54:39.540Z,16.4
2022-08-02T00:55:43.062Z,16.5
2022-08-02T00:56:51.997Z,16.4
2022-08-02T00:57:54.938Z,16.5
2022-08-02T00:58:57.228Z,16.5
2022-08-02T01:00:00.119Z,16.5
2022-08-02T01:01:02.925Z,16.5
2022-08-02T01:02:05.281Z,16.5
2022-08-02T01:03:08.119Z,16.5
2022-08-02T01:04:11.244Z,16.6
2022-08-02T01:05:14.715Z,16.6
2022-08-02T01:06:17.645Z,16.6
2022-08-02T01:07:20.007Z,16.6
2022-08-02T01:08:33.133Z,16.6
2022-08-02T01:09:36.262Z,16.6
2022-08-02T01:10:38.606Z,16.7
2022-08-02T01:11:41.391Z,16.6
2022-08-02T01:12:44.301Z,16.6
2022-08-02T01:13:47.484Z,16.6
2022-08-02T01:14:50.332Z,16.6
2022-08-02T01:15:53.842Z,16.7
2022-08-02T01:16:56.974Z,16.6
2022-08-02T01:17:59.607Z,16.6
2022-08-02T01:19:02.294Z,16.6
2022-08-02T01:20:07.133Z,16.6
2022-08-02T01:21:10.035Z,16.6
2022-08-02T01:22:14.269Z,16.6
2022-08-02T01:23:17.452Z,16.6
2022-08-02T01:24:20.015Z,16.6
2022-08-02T01:25:23.459Z,16.6
2022-08-02T01:26:26.020Z,16.6
2022-08-02T01:27:28.918Z,16.6
2022-08-02T01:28:31.558Z,16.6
2022-08-02T01:29:34.956Z,16.6
2022-08-02T01:30:37.804Z,16.6
2022-08-02T01:31:40.638Z,16.5
2022-08-02T01:32:43.304Z,16.4
2022-08-02T01:33:45.853Z,16.5
2022-08-02T01:34:48.691Z,16.5
2022-08-02T01:35:52.711Z,16.5
2022-08-02T01:36:55.891Z,16.5
2022-08-02T01:37:58.582Z,16.4
2022-08-02T01:39:00.665Z,16.4
2022-08-02T01:40:03.234Z,16.4
2022-08-02T01:41:05.567Z,16.4
2022-08-02T01:42:09.775Z,16.4
2022-08-02T01:43:14.022Z,16.4
2022-08-02T01:44:16.591Z,16.5
2022-08-02T01:45:30.529Z,16.5
2022-08-02T01:46:33.447Z,16.5
2022-08-02T01:47:36.903Z,16.6
2022-08-02T01:48:39.318Z,16.6
2022-08-02T01:49:42.658Z,16.6
2022-08-02T01:50:45.648Z,16.6
2022-08-02T01:51:48.000Z,16.6
2022-08-02T01:52:55.768Z,16.6
2022-08-02T01:53:58.614Z,16.6
2022-08-02T01:55:00.414Z,16.6
2022-08-02T01:56:03.128Z,16.6
2022-08-02T01:57:05.420Z,16.6
2022-08-02T01:58:08.268Z,16.6
2022-08-02T01:59:11.100Z,16.7
2022-08-02T02:00:13.439Z,16.7
2022-08-02T02:01:20.289Z,16.7
2022-08-02T02:02:23.902Z,16.7
2022-08-02T02:03:28.410Z,16.8
2022-08-02T02:04:30.764Z,16.8
2022-08-02T02:05:36.204Z,16.8
2022-08-02T02:06:39.391Z,16.8
2022-08-02T02:07:42.575Z,16.8
2022-08-02T02:08:45.431Z,16.8
2022-08-02T02:09:52.642Z,16.8
2022-08-02T02:10:55.544Z,16.8
2022-08-02T02:12:16.886Z,16.8
2022-08-02T02:13:33.257Z,16.8
2022-08-02T02:14:36.482Z,16.8
2022-08-02T02:15:43.167Z,16.8
2022-08-02T02:16:45.487Z,16.8
2022-08-02T02:18:15.113Z,16.7
2022-08-02T02:19:23.988Z,16.7
2022-08-02T02:20:27.452Z,16.7
2022-08-02T02:21:36.738Z,16.7
2022-08-02T02:22:44.356Z,16.7
2022-08-02T02:23:52.609Z,16.7
2022-08-02T02:24:58.287Z,16.6
2022-08-02T02:26:06.257Z,16.6
2022-08-02T02:27:12.717Z,16.6
2022-08-02T02:28:15.059Z,16.7
2022-08-02T02:29:17.074Z,16.7
2022-08-02T02:30:20.249Z,16.6
2022-08-02T02:31:23.175Z,16.6
2022-08-02T02:32:25.308Z,16.6
2022-08-02T02:33:31.511Z,16.6
2022-08-02T02:34:34.624Z,16.5
2022-08-02T02:35:37.452Z,16.5
2022-08-02T02:36:40.329Z,16.5
2022-08-02T02:37:42.709Z,16.5
2022-08-02T02:38:45.582Z,16.5
2022-08-02T02:39:48.174Z,16.4
2022-08-02T02:40:50.514Z,16.5
2022-08-02T02:41:53.433Z,16.4
2022-08-02T02:42:56.272Z,16.4
2022-08-02T02:43:59.187Z,16.4
2022-08-02T02:45:02.305Z,16.3
2022-08-02T02:46:05.474Z,16.4
2022-08-02T02:47:07.525Z,16.3
2022-08-02T02:48:09.800Z,16.3
2022-08-02T02:49:13.236Z,16.3
2022-08-02T02:50:16.566Z,16.3
2022-08-02T02:51:20.033Z,16.3
2022-08-02T02:52:22.722Z,16.3
2022-08-02T02:53:25.004Z,16.3
2022-08-02T02:54:36.411Z,16.3
2022-08-02T02:55:39.253Z,16.3
2022-08-02T02:56:41.676Z,16.2
2022-08-02T02:57:44.306Z,16.2
2022-08-02T02:58:47.205Z,16.2
2022-08-02T02:59:50.978Z,16.2
2022-08-02T03:00:54.146Z,16.2
2022-08-02T03:02:10.264Z,16.2
2022-08-02T03:03:14.203Z,16.2
2022-08-02T03:04:21.464Z,16.1
2022-08-02T03:05:24.023Z,16.1
2022-08-02T03:06:26.898Z,16.1
2022-08-02T03:07:29.504Z,16
2022-08-02T03:08:32.330Z,16
2022-08-02T03:09:35.313Z,16
2022-08-02T03:10:38.503Z,16
2022-08-02T03:11:40.855Z,16
2022-08-02T03:12:43.148Z,15.9
2022-08-02T03:13:45.781Z,15.9
2022-08-02T03:14:50.437Z,15.9
2022-08-02T03:15:53.071Z,15.9
2022-08-02T03:16:56.532Z,15.8
2022-08-02T03:17:59.430Z,15.8
2022-08-02T03:19:02.331Z,15.8
2022-08-02T03:20:05.526Z,15.8
2022-08-02T03:21:08.211Z,15.7
2022-08-02T03:22:12.987Z,15.7
2022-08-02T03:23:16.779Z,15.7
2022-08-02T03:24:29.210Z,15.7
2022-08-02T03:25:32.665Z,15.7
2022-08-02T03:26:34.954Z,15.6
2022-08-02T03:27:37.295Z,15.6
2022-08-02T03:28:40.626Z,15.7
2022-08-02T03:29:42.971Z,15.6
2022-08-02T03:30:46.150Z,15.6
2022-08-02T03:31:48.161Z,15.6
2022-08-02T03:32:51.124Z,15.6
2022-08-02T03:33:54.312Z,15.6
2022-08-02T03:34:57.831Z,15.5
2022-08-02T03:36:02.841Z,15.6
2022-08-02T03:37:05.402Z,15.6
2022-08-02T03:38:08.307Z,15.6
2022-08-02T03:39:10.672Z,15.6
2022-08-02T03:40:12.413Z,15.5
2022-08-02T03:41:15.323Z,15.6
2022-08-02T03:42:17.727Z,15.5
2022-08-02T03:43:20.827Z,15.5
2022-08-02T03:44:23.464Z,15.5
2022-08-02T03:45:26.115Z,15.5
2022-08-02T03:46:29.246Z,15.4
2022-08-02T03:47:32.093Z,15.4
2022-08-02T03:48:36.580Z,15.4
2022-08-02T03:49:40.229Z,15.3
2022-08-02T03:50:43.266Z,15.4
2022-08-02T03:51:45.627Z,15.4
2022-08-02T03:52:48.266Z,15.4
2022-08-02T03:53:50.614Z,15.4
2022-08-02T03:54:53.186Z,15.4
2022-08-02T03:55:57.381Z,15.4
2022-08-02T03:57:00.290Z,15.4
2022-08-02T03:58:03.133Z,15.4
2022-08-02T03:59:06.307Z,15.4
2022-08-02T04:00:08.926Z,15.4
2022-08-02T04:01:12.117Z,15.4
2022-08-02T04:02:15.588Z,15.4
2022-08-02T04:03:20.942Z,15.4
2022-08-02T04:04:23.587Z,15.5
2022-08-02T04:05:26.764Z,15.5
2022-08-02T04:06:29.936Z,15.5
2022-08-02T04:08:39.843Z,15.5
2022-08-02T04:09:44.642Z,15.5
2022-08-02T04:10:47.249Z,15.5
2022-08-02T04:11:49.928Z,15.5
2022-08-02T04:12:53.116Z,15.6
2022-08-02T04:13:58.561Z,15.6
2022-08-02T04:15:02.275Z,15.6
2022-08-02T04:16:04.923Z,15.6
2022-08-02T04:17:07.774Z,15.6
2022-08-02T04:18:10.693Z,15.6
2022-08-02T04:19:17.177Z,15.6
2022-08-02T04:20:20.408Z,15.6
2022-08-02T04:21:23.381Z,15.6
2022-08-02T04:22:26.297Z,15.6
2022-08-02T04:23:36.180Z,15.6
2022-08-02T04:24:40.435Z,15.7
2022-08-02T04:25:43.576Z,15.7
2022-08-02T04:26:51.538Z,15.7
2022-08-02T04:28:29.549Z,15.7
2022-08-02T04:29:31.514Z,15.7
2022-08-02T04:30:34.647Z,15.7
2022-08-02T04:31:37.801Z,15.7
2022-08-02T04:32:40.445Z,15.8
2022-08-02T04:33:43.340Z,15.7
2022-08-02T04:35:21.285Z,15.8
2022-08-02T04:36:32.953Z,15.7
2022-08-02T04:37:35.902Z,15.7
2022-08-02T04:38:38.751Z,15.8
2022-08-02T04:39:41.436Z,15.8
2022-08-02T04:40:44.338Z,15.8
2022-08-02T04:41:46.898Z,15.8
2022-08-02T04:42:49.463Z,15.8
2022-08-02T04:43:52.260Z,15.8
2022-08-02T04:44:54.891Z,15.9
2022-08-02T04:45:57.455Z,15.9
2022-08-02T04:47:08.390Z,15.9
2022-08-02T04:48:11.221Z,15.9
2022-08-02T04:49:15.034Z,15.9
2022-08-02T04:50:17.756Z,15.9
2022-08-02T04:51:19.820Z,16
2022-08-02T04:52:22.499Z,15.9
2022-08-02T04:53:25.114Z,16
2022-08-02T04:54:27.791Z,16
2022-08-02T04:55:30.737Z,16
2022-08-02T04:56:33.648Z,16
2022-08-02T04:57:36.572Z,16
2022-08-02T04:58:42.370Z,16.1
2022-08-02T04:59:45.361Z,16.1
2022-08-02T05:00:48.653Z,16.1
2022-08-02T05:01:51.377Z,16.2
2022-08-02T05:02:54.625Z,16.2
2022-08-02T05:03:57.527Z,16.2
2022-08-02T05:05:00.445Z,16.3
2022-08-02T05:06:03.231Z,16.3
2022-08-02T05:07:22.044Z,16.3
2022-08-02T05:08:24.951Z,16.3
2022-08-02T05:09:27.928Z,16.3
2022-08-02T05:10:30.840Z,16.3
2022-08-02T05:11:38.948Z,16.4
2022-08-02T05:12:40.975Z,16.4
2022-08-02T05:14:00.412Z,16.4
2022-08-02T05:15:03.000Z,16.4
2022-08-02T05:16:05.916Z,16.4
2022-08-02T05:17:08.819Z,16.4
2022-08-02T05:18:14.338Z,16.5
2022-08-02T05:19:17.151Z,16.5
2022-08-02T05:20:19.426Z,16.5
2022-08-02T05:21:22.323Z,16.6
2022-08-02T05:22:25.987Z,16.6
2022-08-02T05:23:29.171Z,16.6
2022-08-02T05:24:31.863Z,16.6
2022-08-02T05:25:34.154Z,16.6
2022-08-02T05:26:36.579Z,16.6
2022-08-02T05:27:38.691Z,16.7
2022-08-02T05:28:41.879Z,16.7
2022-08-02T05:29:58.937Z,16.7
2022-08-02T05:31:02.110Z,16.7
2022-08-02T05:32:05.987Z,16.8
2022-08-02T05:33:08.876Z,16.8
2022-08-02T05:34:13.578Z,16.9
2022-08-02T05:35:15.636Z,16.9
2022-08-02T05:36:21.848Z,17
2022-08-02T05:37:25.268Z,17
2022-08-02T05:38:38.962Z,16.9
2022-08-02T05:39:57.581Z,17
2022-08-02T05:41:01.256Z,17.1
2022-08-02T05:42:04.212Z,17.2
2022-08-02T05:43:06.228Z,17.3
2022-08-02T05:44:09.127Z,17.3
2022-08-02T05:45:11.481Z,17.4
2022-08-02T05:46:14.373Z,17.5
2022-08-02T05:47:17.335Z,17.5
2022-08-02T05:48:19.942Z,17.5
2022-08-02T05:49:23.196Z,17.5
2022-08-02T05:50:26.417Z,17.6
2022-08-02T05:51:28.990Z,17.8
2022-08-02T05:52:31.620Z,17.8
2022-08-02T05:53:34.530Z,17.9
2022-08-02T05:54:40.883Z,17.9
2022-08-02T05:55:43.200Z,18
2022-08-02T05:56:45.540Z,18
2022-08-02T05:57:48.202Z,18.1
2022-08-02T05:58:53.165Z,18.1
2022-08-02T05:59:55.504Z,18.2
2022-08-02T06:00:58.420Z,18.2
2022-08-02T06:02:01.832Z,18.3
2022-08-02T06:03:04.582Z,18.3
2022-08-02T06:04:07.490Z,18.3
2022-08-02T06:05:09.851Z,18.3
2022-08-02T06:06:12.752Z,18.3
2022-08-02T06:07:15.384Z,18.3
2022-08-02T06:08:18.342Z,18.3
2022-08-02T06:09:28.433Z,18.3
2022-08-02T06:10:30.958Z,18.3
2022-08-02T06:11:33.811Z,18.4
2022-08-02T06:12:36.169Z,18.4
2022-08-02T06:13:39.159Z,18.4
2022-08-02T06:14:41.792Z,18.5
2022-08-02T06:15:55.147Z,18.5
2022-08-02T06:16:58.278Z,18.5
2022-08-02T06:18:02.305Z,18.6
2022-08-02T06:19:04.928Z,18.6
2022-08-02T06:20:07.906Z,18.6
2022-08-02T06:22:43.871Z,18.6
2022-08-02T06:24:01.095Z,18.8
2022-08-02T06:25:04.062Z,18.8
2022-08-02T06:26:07.595Z,18.9
2022-08-02T06:27:10.514Z,18.9
2022-08-02T06:28:13.483Z,19
2022-08-02T06:29:16.395Z,19
2022-08-02T06:30:18.747Z,19
2022-08-02T06:31:21.377Z,19.1
2022-08-02T06:32:23.733Z,19.1
2022-08-02T06:33:26.582Z,19.2
2022-08-02T06:34:29.158Z,19.3
2022-08-02T06:35:31.777Z,19.2
2022-08-02T06:36:34.904Z,19.3
2022-08-02T06:37:37.584Z,19.3
2022-08-02T06:38:39.658Z,19.3
2022-08-02T06:39:42.833Z,19.4
2022-08-02T06:40:45.395Z,19.4
2022-08-02T06:41:48.886Z,19.4
2022-08-02T06:42:51.732Z,19.4
2022-08-02T06:43:54.915Z,19.5
2022-08-02T06:44:59.904Z,19.5
2022-08-02T06:47:14.959Z,19.5
2022-08-02T06:48:17.799Z,19.4
2022-08-02T06:49:20.933Z,19.6
2022-08-02T06:50:23.932Z,19.6
2022-08-02T06:51:26.346Z,19.7
2022-08-02T06:52:31.998Z,19.8
2022-08-02T06:53:34.962Z,19.6
2022-08-02T06:54:38.147Z,19.6
2022-08-02T06:55:45.659Z,19.8
2022-08-02T06:56:49.932Z,20
2022-08-02T06:57:55.213Z,20
2022-08-02T06:58:57.571Z,20.1
2022-08-02T07:00:00.421Z,20.2
2022-08-02T07:01:03.153Z,20
2022-08-02T07:02:06.200Z,20.1
2022-08-02T07:03:09.043Z,20
2022-08-02T07:04:12.121Z,20
2022-08-02T07:05:14.955Z,20
2022-08-02T07:06:17.897Z,20.1
2022-08-02T07:07:21.115Z,20.3
2022-08-02T07:08:24.029Z,19.9
2022-08-02T07:09:27.218Z,20.2
2022-08-02T07:10:29.506Z,20.2
2022-08-02T07:11:32.217Z,20
2022-08-02T07:12:34.867Z,20.2
2022-08-02T07:13:41.151Z,20.3
2022-08-02T07:14:43.659Z,20.2
2022-08-02T07:15:51.148Z,20.1
2022-08-02T07:16:53.837Z,20.3
2022-08-02T07:17:56.400Z,20.3
2022-08-02T07:18:58.815Z,20.4
2022-08-02T07:20:01.151Z,20.4
2022-08-02T07:21:04.073Z,20.2
2022-08-02T07:22:09.089Z,20.5
2022-08-02T07:23:12.307Z,20.4
2022-08-02T07:24:14.992Z,20.6
2022-08-02T07:25:17.900Z,20.6
2022-08-02T07:26:20.811Z,20.6
2022-08-02T07:27:23.718Z,20.6
2022-08-02T07:28:27.314Z,20.6
2022-08-02T07:29:48.306Z,20.7
2022-08-02T07:30:50.822Z,20.8
2022-08-02T07:31:53.817Z,20.8
2022-08-02T07:32:55.901Z,20.9
2022-08-02T07:33:58.596Z,20.9
2022-08-02T07:35:09.490Z,20.9
2022-08-02T07:36:24.586Z,20.9
2022-08-02T07:38:05.411Z,21
2022-08-02T07:39:12.616Z,21.1
2022-08-02T07:40:22.407Z,21.2
2022-08-02T07:41:25.588Z,21.2
2022-08-02T07:42:28.369Z,21.2
2022-08-02T07:43:31.264Z,21.1
2022-08-02T07:44:33.660Z,21.2
2022-08-02T07:46:01.550Z,21.4
2022-08-02T07:47:04.344Z,21.3
2022-08-02T07:48:07.196Z,21.4
2022-08-02T07:49:10.134Z,21.5
2022-08-02T07:50:13.171Z,21.6
2022-08-02T07:51:19.271Z,21.4
2022-08-02T07:52:21.686Z,21.2
2022-08-02T07:54:05.588Z,21.3
2022-08-02T07:55:07.851Z,21.4
2022-08-02T07:56:10.782Z,21.2
2022-08-02T07:57:13.195Z,21.1
2022-08-02T07:58:15.267Z,21.2
2022-08-02T07:59:18.251Z,21.3
2022-08-02T08:00:20.485Z,21.3
2022-08-02T08:01:23.788Z,21.5
2022-08-02T08:02:26.053Z,21.4
2022-08-02T08:03:28.408Z,21.3
2022-08-02T08:04:31.056Z,21.2
2022-08-02T08:05:33.626Z,21.3
2022-08-02T08:06:36.270Z,21.4
2022-08-02T08:07:38.902Z,21.5
2022-08-02T08:08:42.321Z,21.6
2022-08-02T08:09:44.740Z,21.6
2022-08-02T08:10:47.387Z,21.7
2022-08-02T08:11:50.416Z,21.7
2022-08-02T08:12:53.889Z,21.7
2022-08-02T08:13:56.520Z,21.8
2022-08-02T08:14:58.754Z,21.7
2022-08-02T08:16:01.402Z,21.8
2022-08-02T08:17:04.027Z,21.9
2022-08-02T08:18:06.043Z,21.9
2022-08-02T08:19:08.999Z,21.7
2022-08-02T08:20:17.047Z,21.8
2022-08-02T08:21:19.397Z,21.7
2022-08-02T08:22:22.651Z,21.8
2022-08-02T08:23:25.855Z,21.9
2022-08-02T08:24:28.203Z,22
2022-08-02T08:25:41.504Z,21.9
2022-08-02T08:26:44.728Z,21.9
2022-08-02T08:27:47.373Z,22
2022-08-02T08:28:50.351Z,22
2022-08-02T08:29:53.534Z,22.1
2022-08-02T08:30:56.104Z,22.2
2022-08-02T08:31:59.045Z,22.3
2022-08-02T08:33:01.329Z,22.4
2022-08-02T08:34:04.236Z,22.2
2022-08-02T08:35:07.415Z,22.3
2022-08-02T08:36:10.044Z,22.3
2022-08-02T08:37:20.335Z,22.3
2022-08-02T08:38:28.939Z,22
2022-08-02T08:39:31.909Z,21.8
2022-08-02T08:40:34.837Z,21.9
2022-08-02T08:41:37.823Z,22.1
2022-08-02T08:42:41.017Z,22.2
2022-08-02T08:43:43.932Z,22.2
2022-08-02T08:44:47.107Z,22.1
2022-08-02T08:45:57.155Z,22.3
2022-08-02T08:46:59.792Z,22.4
2022-08-02T08:48:02.706Z,22.3
2022-08-02T08:49:06.200Z,22.3
2022-08-02T08:50:26.207Z,22.4
2022-08-02T08:51:28.726Z,22.4
2022-08-02T08:52:35.034Z,22.6
2022-08-02T08:53:38.465Z,22.7
2022-08-02T08:54:41.022Z,22.9
2022-08-02T08:55:44.251Z,22.8
2022-08-02T08:56:47.055Z,22.7
2022-08-02T08:57:49.754Z,22.9
2022-08-02T08:58:52.384Z,22.6
2022-08-02T08:59:54.231Z,22.8
2022-08-02T09:00:57.283Z,22.9
2022-08-02T09:02:29.048Z,23
2022-08-02T09:03:35.393Z,23
2022-08-02T09:04:37.969Z,23.1
2022-08-02T09:05:41.221Z,23.2
2022-08-02T09:06:44.135Z,23.1
2022-08-02T09:07:46.493Z,22.9
2022-08-02T09:08:49.122Z,23
2022-08-02T09:09:51.773Z,23
2022-08-02T09:10:54.949Z,23.2
2022-08-02T09:11:58.174Z,23.4
2022-08-02T09:13:00.252Z,23.3
2022-08-02T09:14:03.163Z,23.5
2022-08-02T09:15:05.784Z,23.6
2022-08-02T09:16:16.306Z,23.6
2022-08-02T09:17:21.968Z,23.7
2022-08-02T09:18:24.441Z,23.9
2022-08-02T09:19:27.926Z,23.8
2022-08-02T09:20:32.289Z,24
2022-08-02T09:21:34.864Z,24.1
2022-08-02T09:22:37.772Z,24.1
2022-08-02T09:23:40.396Z,24.3
2022-08-02T09:24:42.969Z,24.3
2022-08-02T09:26:08.151Z,24.3
2022-08-02T09:27:10.951Z,24.2
2022-08-02T09:28:13.867Z,24.4
2022-08-02T09:29:16.500Z,24.6
2022-08-02T09:30:19.677Z,24.6
2022-08-02T09:31:21.546Z,24.6
2022-08-02T09:32:24.188Z,24.5
2022-08-02T09:33:26.809Z,24.7
2022-08-02T09:34:29.374Z,24.8
2022-08-02T09:36:09.435Z,24.9
2022-08-02T09:37:12.336Z,24.8
2022-08-02T09:38:17.530Z,24.6
2022-08-02T09:39:19.549Z,24.5
2022-08-02T09:40:22.457Z,24.8
2022-08-02T09:41:25.427Z,24.6
2022-08-02T09:42:32.412Z,24.6
2022-08-02T09:43:34.562Z,24.6
2022-08-02T09:44:37.198Z,24.9
2022-08-02T09:45:40.052Z,24.9
2022-08-02T09:46:42.756Z,25.1
2022-08-02T09:47:45.942Z,25.3
2022-08-02T09:48:54.275Z,25.3
2022-08-02T09:49:59.386Z,25.4
2022-08-02T09:51:02.357Z,25.3
2022-08-02T09:52:05.465Z,25.3
2022-08-02T09:53:08.362Z,25.2
2022-08-02T09:54:11.457Z,25.4
2022-08-02T09:55:14.332Z,25.5
2022-08-02T09:56:37.541Z,25.7
2022-08-02T09:57:40.602Z,25.5
2022-08-02T09:58:43.518Z,25.6
2022-08-02T09:59:46.699Z,25.8
2022-08-02T10:00:56.818Z,25.8
2022-08-02T10:02:05.637Z,25.7
2022-08-02T10:03:41.283Z,25.8
2022-08-02T10:04:55.712Z,25.9
2022-08-02T10:06:04.582Z,26
2022-08-02T10:07:07.797Z,26.1
2022-08-02T10:08:11.015Z,26.1
2022-08-02T10:09:13.638Z,26.1
2022-08-02T10:10:16.614Z,26.1
2022-08-02T10:11:20.081Z,26.5
2022-08-02T10:12:22.618Z,26.6
2022-08-02T10:13:25.251Z,26.5
2022-08-02T10:14:27.047Z,26.7
2022-08-02T10:15:29.342Z,27
2022-08-02T10:16:32.512Z,26.6
2022-08-02T10:17:34.914Z,26.6
2022-08-02T10:18:43.016Z,26.6
2022-08-02T10:20:06.379Z,26.7
2022-08-02T10:21:09.119Z,26.5
2022-08-02T10:22:14.253Z,26.5
2022-08-02T10:23:17.867Z,26.4
2022-08-02T10:24:20.703Z,26.8
2022-08-02T10:25:23.339Z,26.7
2022-08-02T10:26:25.974Z,26.8
2022-08-02T10:28:06.249Z,26.6
2022-08-02T10:29:10.034Z,26.8
2022-08-02T10:30:12.390Z,27
2022-08-02T10:31:14.410Z,27.2
2022-08-02T10:32:17.707Z,26.9
2022-08-02T10:33:20.338Z,27.1
2022-08-02T10:34:23.746Z,27.1
2022-08-02T10:35:34.674Z,26.9
2022-08-02T10:36:38.163Z,26.7
2022-08-02T10:37:41.061Z,27
2022-08-02T10:38:43.570Z,27.2
2022-08-02T10:39:52.335Z,27.5
2022-08-02T10:40:55.736Z,27.7
2022-08-02T10:42:01.608Z,28
2022-08-02T10:43:03.965Z,28.2
2022-08-02T10:44:25.598Z,28.3
2022-08-02T10:45:28.967Z,28.1
2022-08-02T10:46:31.539Z,28.1
2022-08-02T10:47:35.038Z,28.2
2022-08-02T10:48:38.518Z,28.2
2022-08-02T10:49:42.358Z,28.2
2022-08-02T10:50:46.629Z,28.2
2022-08-02T10:51:49.084Z,28.1
2022-08-02T10:52:53.076Z,28.1
2022-08-02T10:53:55.976Z,28.3
2022-08-02T10:54:59.281Z,28.2
2022-08-02T10:56:01.999Z,28.4
2022-08-02T10:57:04.362Z,28.5
2022-08-02T10:58:07.038Z,28.3
2022-08-02T10:59:09.461Z,28.4
2022-08-02T11:00:20.048Z,28.5
2022-08-02T11:01:23.691Z,28.6
2022-08-02T11:02:26.386Z,28.6
2022-08-02T11:03:28.676Z,28.6
2022-08-02T11:04:31.299Z,28.6
2022-08-02T11:05:44.821Z,28.6
2022-08-02T11:06:47.676Z,28.5
2022-08-02T11:07:51.349Z,28.6
2022-08-02T11:08:54.299Z,28.8
2022-08-02T11:09:56.591Z,28.5
2022-08-02T11:10:59.003Z,28.6
2022-08-02T11:12:01.923Z,28.3
2022-08-02T11:13:05.127Z,28.5
2022-08-02T11:14:07.813Z,28.8
2022-08-02T11:15:10.941Z,29
2022-08-02T11:16:14.227Z,28.8
2022-08-02T11:17:18.072Z,28.9
2022-08-02T11:18:20.709Z,29.1
2022-08-02T11:19:22.785Z,29.3
2022-08-02T11:20:24.894Z,29.4
2022-08-02T11:21:27.314Z,29.6
2022-08-02T11:22:29.666Z,29.6
2022-08-02T11:23:47.119Z,29.8
2022-08-02T11:24:49.900Z,30.1
2022-08-02T11:26:12.830Z,30
2022-08-02T11:27:15.428Z,30.1
2022-08-02T11:28:26.003Z,29.9
2022-08-02T11:29:28.657Z,30
2022-08-02T11:30:31.848Z,30
2022-08-02T11:31:34.523Z,29.8
2022-08-02T11:32:37.352Z,29.9
2022-08-02T11:33:40.804Z,29.9
2022-08-02T11:34:43.722Z,30
2022-08-02T11:35:47.192Z,30.1
2022-08-02T11:36:49.887Z,30.1
2022-08-02T11:37:54.014Z,30.3
2022-08-02T11:38:56.656Z,30.5
2022-08-02T11:39:59.834Z,30.7
2022-08-02T11:41:11.852Z,30.8
2022-08-02T11:42:16.496Z,30.8
2022-08-02T11:43:19.044Z,30.9
2022-08-02T11:44:24.882Z,30.9
2022-08-02T11:45:37.061Z,30.9
2022-08-02T11:46:39.631Z,30.8
2022-08-02T11:47:42.256Z,30.8
2022-08-02T11:48:45.183Z,30.9
2022-08-02T11:49:47.983Z,30.7
2022-08-02T11:50:51.173Z,30.6
2022-08-02T11:51:56.043Z,30.7
2022-08-02T11:52:58.770Z,30.8
2022-08-02T11:54:01.406Z,31
2022-08-02T11:55:04.036Z,31.2
2022-08-02T11:56:07.234Z,31.1
2022-08-02T11:57:09.884Z,31.1
2022-08-02T11:58:12.772Z,31.2
2022-08-02T11:59:16.652Z,31.2
2022-08-02T12:00:19.065Z,31.3
2022-08-02T12:01:24.152Z,31.2
2022-08-02T12:02:30.407Z,31.2
2022-08-02T12:03:33.847Z,31.2
2022-08-02T12:04:39.111Z,31.2
2022-08-02T12:06:21.733Z,31.3
2022-08-02T12:07:46.359Z,31.2
2022-08-02T12:09:00.319Z,31
2022-08-02T12:10:03.403Z,31
2022-08-02T12:11:05.767Z,30.9
2022-08-02T12:12:08.681Z,31.2
2022-08-02T12:13:11.818Z,31.3
2022-08-02T12:14:15.000Z,31.3
2022-08-02T12:15:19.180Z,31.6
2022-08-02T12:16:21.748Z,31.3
2022-08-02T12:17:24.866Z,31.3
2022-08-02T12:18:27.434Z,31.4
2022-08-02T12:19:30.105Z,31.5
2022-08-02T12:20:32.681Z,31.5
2022-08-02T12:21:35.818Z,31.7
2022-08-02T12:22:43.750Z,31.9
2022-08-02T12:24:02.455Z,32
2022-08-02T12:25:05.299Z,32.3
2022-08-02T12:26:07.950Z,32.2
2022-08-02T12:27:10.590Z,32
2022-08-02T12:28:19.469Z,32.2
2022-08-02T12:30:01.118Z,32.2
2022-08-02T12:31:04.521Z,32.3
2022-08-02T12:32:07.132Z,32.5
2022-08-02T12:33:14.997Z,32.4
2022-08-02T12:34:17.942Z,32.4
2022-08-02T12:35:28.823Z,32.6
2022-08-02T12:36:31.980Z,32.7
2022-08-02T12:37:34.563Z,32.4
2022-08-02T12:38:36.920Z,32.3
2022-08-02T12:39:39.277Z,32.2
2022-08-02T12:40:42.777Z,32.3
2022-08-02T12:41:56.500Z,32.3
2022-08-02T12:42:59.619Z,32
2022-08-02T12:44:02.532Z,31.9
2022-08-02T12:45:04.886Z,31.8
2022-08-02T12:46:08.083Z,31.7
2022-08-02T12:47:11.272Z,31.8
2022-08-02T12:48:13.355Z,31.5
2022-08-02T12:49:20.925Z,31.4
2022-08-02T12:50:23.983Z,31.6
2022-08-02T12:52:07.176Z,31.6
2022-08-02T12:53:09.980Z,31.5
2022-08-02T12:54:19.363Z,31.6
2022-08-02T12:56:05.135Z,31.3
2022-08-02T12:57:08.594Z,31.1
2022-08-02T12:58:11.840Z,31.2
2022-08-02T12:59:14.119Z,31.1
2022-08-02T13:00:17.081Z,31
2022-08-02T13:01:20.272Z,31.3
2022-08-02T13:02:24.568Z,31.3
2022-08-02T13:04:17.579Z,31.2
2022-08-02T13:05:20.098Z,30.5
2022-08-02T13:06:52.712Z,30.9
2022-08-02T13:07:55.276Z,31.2
2022-08-02T13:08:57.895Z,31.2
2022-08-02T13:10:05.626Z,31.4
2022-08-02T13:11:08.065Z,31.4
2022-08-02T13:12:13.564Z,31.5
2022-08-02T13:13:16.579Z,31.4
2022-08-02T13:14:19.155Z,31.2
2022-08-02T13:15:52.498Z,31.1
2022-08-02T13:16:55.351Z,31.1
2022-08-02T13:17:58.350Z,31.1
2022-08-02T13:19:01.385Z,31.2
2022-08-02T13:20:10.657Z,31.1
2022-08-02T13:22:12.934Z,31.1
2022-08-02T13:23:23.348Z,31.3
2022-08-02T13:24:58.527Z,31.2
2022-08-02T13:26:01.320Z,31.3
2022-08-02T13:27:10.519Z,31.4
2022-08-02T13:28:13.418Z,31.4
2022-08-02T13:29:15.759Z,31.3
2022-08-02T13:30:18.706Z,31.4
2022-08-02T13:31:38.272Z,31.3
2022-08-02T13:32:41.672Z,31.1
2022-08-02T13:33:44.290Z,31
2022-08-02T13:34:47.487Z,31.1
2022-08-02T13:35:50.136Z,31.1
2022-08-02T13:36:53.295Z,31.2
2022-08-02T13:37:55.880Z,31.2
2022-08-02T13:38:59.124Z,31.2
2022-08-02T13:40:23.993Z,31.3
2022-08-02T13:41:27.165Z,31.2
2022-08-02T13:42:29.790Z,31.2
2022-08-02T13:44:11.295Z,31.1
2022-08-02T13:45:16.029Z,31.1
2022-08-02T13:46:30.640Z,31.2
2022-08-02T13:48:20.164Z,31.1
2022-08-02T13:49:55.335Z,31.1
2022-08-02T13:50:59.827Z,31.4
2022-08-02T13:52:02.236Z,31.5
2022-08-02T13:53:05.171Z,31.7
2022-08-02T13:54:08.136Z,31.8
2022-08-02T13:55:14.296Z,31.8
2022-08-02T13:56:17.848Z,31.9
2022-08-02T13:57:20.281Z,31.9
2022-08-02T13:58:23.481Z,32
2022-08-02T14:00:00.415Z,31.9
2022-08-02T14:01:05.702Z,31.9
2022-08-02T14:02:08.360Z,32
2022-08-02T14:03:13.995Z,32
2022-08-02T14:04:16.969Z,31.7
2022-08-02T14:05:49.502Z,31.8
2022-08-02T14:06:52.028Z,31.5
2022-08-02T14:07:54.945Z,31.5
2022-08-02T14:08:57.897Z,31.6
2022-08-02T14:10:00.863Z,31.7
2022-08-02T14:11:03.970Z,31.6
2022-08-02T14:12:06.245Z,31.5
2022-08-02T14:13:08.810Z,31.6
2022-08-02T14:14:18.429Z,31.8
2022-08-02T14:15:20.999Z,31.4
2022-08-02T14:16:34.685Z,31.9
2022-08-02T14:17:38.164Z,32.1
2022-08-02T14:18:40.230Z,32.1
2022-08-02T14:19:42.875Z,32.3
2022-08-02T14:20:45.437Z,32.4
2022-08-02T14:21:49.687Z,32.4
2022-08-02T14:22:52.386Z,32.3
2022-08-02T14:23:55.843Z,32.3
2022-08-02T14:25:10.311Z,32.2
2022-08-02T14:26:29.261Z,32.3
2022-08-02T14:27:41.081Z,32.4
2022-08-02T14:28:43.903Z,32.4
2022-08-02T14:29:46.010Z,32.2
2022-08-02T14:30:48.020Z,32.1
2022-08-02T14:31:50.650Z,31.9
2022-08-02T14:32:53.836Z,31.9
2022-08-02T14:33:56.752Z,32
2022-08-02T14:34:59.385Z,32
2022-08-02T14:36:03.964Z,32
2022-08-02T14:37:07.922Z,32.1